createdAt,value
2017-12-23T00:00:18.375Z,9.64
2017-12-23T00:01:20.896Z,9.55
2017-12-23T00:02:23.481Z,9.50
2017-12-23T00:03:25.989Z,9.47
2017-12-23T00:04:28.465Z,9.39
2017-12-23T00:05:30.952Z,9.25
2017-12-23T00:06:33.432Z,9.32
2017-12-23T00:07:35.914Z,9.22
2017-12-23T00:08:38.500Z,9.25
2017-12-23T00:09:41.071Z,9.20
2017-12-23T00:10:43.576Z,9.27
2017-12-23T00:11:46.120Z,9.30
2017-12-23T00:12:48.640Z,9.37
2017-12-23T00:13:51.160Z,9.39
2017-12-23T00:14:53.663Z,9.41
2017-12-23T00:15:56.214Z,9.49
2017-12-23T00:16:58.670Z,9.30
2017-12-23T00:18:01.130Z,9.43
2017-12-23T00:19:03.658Z,9.30
2017-12-23T00:20:06.150Z,9.32
2017-12-23T00:21:08.713Z,9.28
2017-12-23T00:22:11.202Z,9.22
2017-12-23T00:23:13.706Z,9.42
2017-12-23T00:24:16.235Z,9.47
2017-12-23T00:25:18.710Z,9.26
2017-12-23T00:26:21.234Z,9.31
2017-12-23T00:27:23.720Z,9.25
2017-12-23T00:28:26.219Z,9.26
2017-12-23T00:29:28.742Z,9.36
2017-12-23T00:30:31.231Z,9.25
2017-12-23T00:31:33.731Z,9.30
2017-12-23T00:32:36.233Z,9.30
2017-12-23T00:33:38.709Z,9.30
2017-12-23T00:34:41.204Z,9.36
2017-12-23T00:35:43.693Z,9.27
2017-12-23T00:36:46.183Z,9.24
2017-12-23T00:37:48.670Z,9.21
2017-12-23T00:38:51.312Z,9.30
2017-12-23T00:39:53.832Z,9.38
2017-12-23T00:40:56.384Z,9.37
2017-12-23T00:41:58.904Z,9.35
2017-12-23T00:43:01.560Z,9.31
2017-12-23T00:44:04.081Z,9.31
2017-12-23T00:45:06.563Z,9.36
2017-12-23T00:46:09.034Z,9.34
2017-12-23T00:47:11.565Z,9.47
2017-12-23T00:48:14.038Z,9.64
2017-12-23T00:49:16.563Z,9.60
2017-12-23T00:50:19.077Z,9.57
2017-12-23T00:51:21.562Z,9.64
2017-12-23T00:52:24.078Z,9.66
2017-12-23T00:53:26.558Z,9.56
2017-12-23T00:54:29.034Z,9.48
2017-12-23T00:55:31.541Z,9.45
2017-12-23T00:56:34.025Z,9.42
2017-12-23T00:57:36.539Z,9.28
2017-12-23T00:58:39.132Z,9.44
2017-12-23T00:59:41.622Z,9.51
2017-12-23T01:00:44.122Z,9.45
2017-12-23T01:01:46.683Z,9.40
2017-12-23T01:02:49.209Z,9.44
2017-12-23T01:03:51.744Z,9.63
2017-12-23T01:04:54.364Z,9.63
2017-12-23T01:05:56.964Z,9.45
2017-12-23T01:06:59.529Z,9.46
2017-12-23T01:08:02.000Z,9.40
2017-12-23T01:09:04.479Z,9.53
2017-12-23T01:10:06.956Z,9.55
2017-12-23T01:11:09.629Z,9.63
2017-12-23T01:12:12.113Z,9.44
2017-12-23T01:13:14.608Z,9.52
2017-12-23T01:14:17.079Z,9.57
2017-12-23T01:15:19.662Z,9.42
2017-12-23T01:16:22.151Z,9.40
2017-12-23T01:17:24.637Z,9.26
2017-12-23T01:18:27.133Z,9.35
2017-12-23T01:19:29.619Z,9.48
2017-12-23T01:20:32.968Z,9.53
2017-12-23T01:21:35.516Z,9.44
2017-12-23T01:22:37.986Z,9.41
2017-12-23T01:23:40.480Z,9.39
2017-12-23T01:24:42.966Z,9.26
2017-12-23T01:25:45.465Z,9.25
2017-12-23T01:26:48.046Z,9.49
2017-12-23T01:27:50.522Z,9.48
2017-12-23T01:28:52.999Z,9.35
2017-12-23T01:29:55.498Z,9.47
2017-12-23T01:30:57.976Z,9.53
2017-12-23T01:32:00.510Z,9.65
2017-12-23T01:33:02.978Z,9.62
2017-12-23T01:34:05.632Z,9.65
2017-12-23T01:35:08.136Z,9.64
2017-12-23T01:36:10.742Z,9.48
2017-12-23T01:37:13.274Z,9.66
2017-12-23T01:38:15.806Z,9.67
2017-12-23T01:39:18.314Z,9.68
2017-12-23T01:40:20.956Z,9.51
2017-12-23T01:41:23.603Z,9.48
2017-12-23T01:42:26.128Z,9.58
2017-12-23T01:43:28.743Z,9.71
2017-12-23T01:44:31.292Z,9.70
2017-12-23T01:45:33.834Z,9.60
2017-12-23T01:46:36.311Z,9.53
2017-12-23T01:47:38.812Z,9.60
2017-12-23T01:48:41.270Z,9.74
2017-12-23T01:49:43.756Z,9.78
2017-12-23T01:50:46.330Z,9.65
2017-12-23T01:51:48.844Z,9.63
2017-12-23T01:52:51.384Z,9.58
2017-12-23T01:53:53.865Z,9.57
2017-12-23T01:54:56.371Z,9.57
2017-12-23T01:55:58.856Z,9.53
2017-12-23T01:57:01.327Z,9.51
2017-12-23T01:58:03.830Z,9.53
2017-12-23T01:59:06.306Z,9.49
2017-12-23T02:00:08.810Z,9.47
2017-12-23T02:01:11.285Z,9.47
2017-12-23T02:02:13.790Z,9.48
2017-12-23T02:03:16.358Z,9.53
2017-12-23T02:04:18.836Z,9.46
2017-12-23T02:05:21.316Z,9.45
2017-12-23T02:06:23.795Z,9.28
2017-12-23T02:07:26.280Z,9.31
2017-12-23T02:08:28.766Z,9.28
2017-12-23T02:09:31.256Z,9.43
2017-12-23T02:10:33.725Z,9.43
2017-12-23T02:11:36.248Z,9.46
2017-12-23T02:12:38.823Z,9.44
2017-12-23T02:13:41.324Z,9.43
2017-12-23T02:14:43.783Z,9.38
2017-12-23T02:15:46.257Z,9.28
2017-12-23T02:16:48.723Z,9.22
2017-12-23T02:17:51.205Z,9.09
2017-12-23T02:18:53.702Z,9.29
2017-12-23T02:19:56.181Z,9.31
2017-12-23T02:20:58.656Z,9.37
2017-12-23T02:22:01.113Z,9.34
2017-12-23T02:23:03.589Z,9.35
2017-12-23T02:24:06.100Z,9.33
2017-12-23T02:25:08.566Z,9.36
2017-12-23T02:26:11.041Z,9.30
2017-12-23T02:27:13.498Z,9.25
2017-12-23T02:28:15.975Z,9.15
2017-12-23T02:29:18.474Z,9.12
2017-12-23T02:30:20.954Z,9.29
2017-12-23T02:31:23.414Z,9.40
2017-12-23T02:32:25.898Z,9.49
2017-12-23T02:33:28.366Z,9.46
2017-12-23T02:34:30.859Z,9.51
2017-12-23T02:35:33.337Z,9.53
2017-12-23T02:36:35.819Z,9.47
2017-12-23T02:37:38.356Z,9.44
2017-12-23T02:38:40.832Z,9.38
2017-12-23T02:39:43.329Z,9.37
2017-12-23T02:40:45.803Z,9.37
2017-12-23T02:41:49.407Z,9.38
2017-12-23T02:42:51.889Z,9.34
2017-12-23T02:43:54.351Z,9.34
2017-12-23T02:44:56.877Z,9.35
2017-12-23T02:45:59.354Z,9.37
2017-12-23T02:47:01.847Z,9.31
2017-12-23T02:48:04.306Z,9.31
2017-12-23T02:49:06.783Z,9.30
2017-12-23T02:50:09.286Z,9.35
2017-12-23T02:51:11.761Z,9.27
2017-12-23T02:52:14.223Z,9.29
2017-12-23T02:53:16.708Z,9.19
2017-12-23T02:54:19.166Z,9.14
2017-12-23T02:55:21.664Z,9.13
2017-12-23T02:56:24.126Z,9.04
2017-12-23T02:57:26.617Z,9.18
2017-12-23T02:58:29.084Z,9.22
2017-12-23T02:59:31.560Z,9.19
2017-12-23T03:00:34.043Z,9.21
2017-12-23T03:01:36.517Z,9.22
2017-12-23T03:02:38.992Z,9.27
2017-12-23T03:03:41.468Z,9.32
2017-12-23T03:04:43.930Z,9.33
2017-12-23T03:05:46.406Z,9.28
2017-12-23T03:06:48.870Z,9.30
2017-12-23T03:07:51.330Z,9.25
2017-12-23T03:08:53.790Z,9.23
2017-12-23T03:09:56.245Z,9.31
2017-12-23T03:10:58.722Z,9.37
2017-12-23T03:12:01.200Z,9.35
2017-12-23T03:13:03.664Z,9.27
2017-12-23T03:14:06.143Z,9.24
2017-12-23T03:15:08.604Z,9.26
2017-12-23T03:16:11.103Z,9.21
2017-12-23T03:17:13.558Z,9.22
2017-12-23T03:18:16.030Z,9.24
2017-12-23T03:19:18.508Z,9.21
2017-12-23T03:20:20.983Z,9.21
2017-12-23T03:21:23.469Z,9.19
2017-12-23T03:22:25.930Z,9.21
2017-12-23T03:23:28.390Z,9.14
2017-12-23T03:24:30.872Z,9.10
2017-12-23T03:25:33.338Z,9.18
2017-12-23T03:26:35.836Z,9.18
2017-12-23T03:27:38.307Z,9.22
2017-12-23T03:28:40.766Z,9.21
2017-12-23T03:29:43.222Z,9.20
2017-12-23T03:30:45.683Z,9.09
2017-12-23T03:31:49.398Z,9.14
2017-12-23T03:32:51.869Z,9.18
2017-12-23T03:33:54.344Z,9.18
2017-12-23T03:34:56.823Z,9.19
2017-12-23T03:35:59.286Z,9.14
2017-12-23T03:37:01.762Z,9.17
2017-12-23T03:38:04.225Z,9.16
2017-12-23T03:39:06.684Z,9.08
2017-12-23T03:40:09.168Z,9.08
2017-12-23T03:41:11.626Z,9.06
2017-12-23T03:42:14.128Z,9.11
2017-12-23T03:43:16.590Z,9.13
2017-12-23T03:44:19.069Z,9.10
2017-12-23T03:45:21.534Z,9.08
2017-12-23T03:46:23.998Z,9.12
2017-12-23T03:47:26.491Z,9.13
2017-12-23T03:48:28.972Z,9.12
2017-12-23T03:49:31.439Z,9.11
2017-12-23T03:50:33.905Z,9.11
2017-12-23T03:51:36.379Z,9.11
2017-12-23T03:52:38.870Z,9.12
2017-12-23T03:53:41.343Z,8.99
2017-12-23T03:54:43.806Z,9.09
2017-12-23T03:55:46.300Z,9.01
2017-12-23T03:56:48.762Z,9.09
2017-12-23T03:57:52.445Z,9.11
2017-12-23T03:58:54.922Z,9.15
2017-12-23T03:59:57.386Z,8.97
2017-12-23T04:00:59.846Z,8.94
2017-12-23T04:02:02.335Z,9.07
2017-12-23T04:03:04.826Z,9.17
2017-12-23T04:04:07.286Z,9.14
2017-12-23T04:05:09.747Z,9.11
2017-12-23T04:06:12.235Z,9.12
2017-12-23T04:07:14.724Z,9.05
2017-12-23T04:08:17.208Z,9.02
2017-12-23T04:09:19.671Z,9.04
2017-12-23T04:10:22.148Z,9.08
2017-12-23T04:11:24.623Z,9.18
2017-12-23T04:12:27.091Z,9.08
2017-12-23T04:13:30.191Z,9.16
2017-12-23T04:14:32.655Z,9.19
2017-12-23T04:15:35.115Z,9.24
2017-12-23T04:16:37.588Z,9.23
2017-12-23T04:17:40.076Z,9.31
2017-12-23T04:18:42.576Z,9.42
2017-12-23T04:19:45.038Z,9.40
2017-12-23T04:20:47.494Z,9.42
2017-12-23T04:21:49.959Z,9.45
2017-12-23T04:22:52.419Z,9.45
2017-12-23T04:23:54.912Z,9.37
2017-12-23T04:24:57.367Z,9.19
2017-12-23T04:25:59.836Z,9.20
2017-12-23T04:27:02.295Z,9.26
2017-12-23T04:28:04.783Z,9.21
2017-12-23T04:29:07.280Z,9.22
2017-12-23T04:30:09.763Z,9.27
2017-12-23T04:31:12.217Z,9.26
2017-12-23T04:32:14.725Z,9.32
2017-12-23T04:33:17.181Z,9.24
2017-12-23T04:34:19.670Z,9.24
2017-12-23T04:35:22.222Z,9.28
2017-12-23T04:36:24.708Z,9.32
2017-12-23T04:37:27.182Z,9.29
2017-12-23T04:38:29.640Z,9.32
2017-12-23T04:39:32.136Z,9.36
2017-12-23T04:40:34.614Z,9.37
2017-12-23T04:41:37.082Z,9.26
2017-12-23T04:42:39.543Z,9.28
2017-12-23T04:43:42.016Z,9.25
2017-12-23T04:44:44.516Z,9.18
2017-12-23T04:45:46.978Z,9.20
2017-12-23T04:46:49.442Z,9.22
2017-12-23T04:47:51.906Z,9.26
2017-12-23T04:48:54.413Z,9.38
2017-12-23T04:49:56.894Z,9.35
2017-12-23T04:50:59.393Z,9.49
2017-12-23T04:52:01.867Z,9.48
2017-12-23T04:53:04.389Z,9.43
2017-12-23T04:54:06.850Z,9.30
2017-12-23T04:55:09.358Z,9.27
2017-12-23T04:56:11.836Z,9.35
2017-12-23T04:57:14.308Z,9.45
2017-12-23T04:58:16.777Z,9.46
2017-12-23T04:59:19.265Z,9.33
2017-12-23T05:00:21.746Z,9.39
2017-12-23T05:01:24.211Z,9.38
2017-12-23T05:02:26.688Z,9.30
2017-12-23T05:03:29.151Z,9.31
2017-12-23T05:04:31.628Z,9.25
2017-12-23T05:05:34.106Z,9.28
2017-12-23T05:06:36.564Z,9.21
2017-12-23T05:07:39.022Z,9.17
2017-12-23T05:08:41.497Z,9.19
2017-12-23T05:09:43.964Z,9.22
2017-12-23T05:10:46.456Z,9.27
2017-12-23T05:11:48.931Z,9.21
2017-12-23T05:12:51.398Z,9.13
2017-12-23T05:13:53.872Z,9.12
2017-12-23T05:14:56.337Z,9.14
2017-12-23T05:15:58.869Z,9.12
2017-12-23T05:17:01.381Z,9.12
2017-12-23T05:18:03.878Z,9.16
2017-12-23T05:19:06.356Z,9.18
2017-12-23T05:20:08.839Z,9.18
2017-12-23T05:21:11.322Z,9.12
2017-12-23T05:22:13.790Z,9.16
2017-12-23T05:23:16.249Z,9.17
2017-12-23T05:24:18.710Z,9.17
2017-12-23T05:25:21.170Z,9.17
2017-12-23T05:26:23.656Z,9.15
2017-12-23T05:27:26.132Z,9.13
2017-12-23T05:28:28.594Z,9.13
2017-12-23T05:29:31.050Z,9.12
2017-12-23T05:30:33.525Z,9.10
2017-12-23T05:31:36.020Z,9.08
2017-12-23T05:32:38.496Z,9.06
2017-12-23T05:33:40.981Z,8.77
2017-12-23T05:34:43.446Z,8.63
2017-12-23T05:35:45.920Z,8.94
2017-12-23T05:36:48.419Z,9.03
2017-12-23T05:37:50.900Z,9.04
2017-12-23T05:38:53.358Z,8.98
2017-12-23T05:39:55.831Z,9.01
2017-12-23T05:40:58.289Z,9.07
2017-12-23T05:42:00.788Z,9.08
2017-12-23T05:43:03.265Z,9.11
2017-12-23T05:44:05.727Z,9.09
2017-12-23T05:45:08.189Z,9.07
2017-12-23T05:46:10.668Z,9.09
2017-12-23T05:47:13.172Z,9.09
2017-12-23T05:48:15.657Z,8.99
2017-12-23T05:49:18.141Z,8.99
2017-12-23T05:50:20.602Z,8.96
2017-12-23T05:51:23.062Z,8.95
2017-12-23T05:52:25.546Z,8.96
2017-12-23T05:53:28.033Z,8.97
2017-12-23T05:54:30.519Z,9.01
2017-12-23T05:55:32.996Z,9.04
2017-12-23T05:56:35.458Z,9.02
2017-12-23T05:57:37.969Z,9.03
2017-12-23T05:58:40.426Z,9.03
2017-12-23T05:59:42.884Z,9.03
2017-12-23T06:00:45.364Z,8.98
2017-12-23T06:01:47.826Z,8.99
2017-12-23T06:02:50.301Z,9.04
2017-12-23T06:03:52.766Z,9.03
2017-12-23T06:04:55.223Z,9.04
2017-12-23T06:05:57.704Z,9.05
2017-12-23T06:07:00.193Z,9.03
2017-12-23T06:08:02.692Z,8.93
2017-12-23T06:09:05.150Z,8.93
2017-12-23T06:10:07.625Z,8.94
2017-12-23T06:11:10.093Z,8.95
2017-12-23T06:12:12.557Z,8.87
2017-12-23T06:13:15.052Z,8.88
2017-12-23T06:14:17.534Z,8.88
2017-12-23T06:15:20.009Z,8.91
2017-12-23T06:16:22.468Z,8.84
2017-12-23T06:17:24.926Z,8.84
2017-12-23T06:18:27.411Z,8.79
2017-12-23T06:19:29.892Z,8.81
2017-12-23T06:20:32.372Z,8.79
2017-12-23T06:21:34.830Z,8.77
2017-12-23T06:22:37.320Z,8.73
2017-12-23T06:23:39.814Z,8.72
2017-12-23T06:24:42.274Z,8.80
2017-12-23T06:25:44.738Z,8.83
2017-12-23T06:26:47.209Z,8.83
2017-12-23T06:27:49.691Z,8.86
2017-12-23T06:28:52.188Z,8.78
2017-12-23T06:29:54.701Z,8.82
2017-12-23T06:30:57.162Z,8.72
2017-12-23T06:31:59.645Z,8.78
2017-12-23T06:33:02.120Z,8.73
2017-12-23T06:34:04.608Z,8.74
2017-12-23T06:35:07.074Z,8.74
2017-12-23T06:36:09.588Z,8.72
2017-12-23T06:37:12.049Z,8.74
2017-12-23T06:38:14.895Z,8.72
2017-12-23T06:39:17.393Z,8.76
2017-12-23T06:40:19.860Z,8.78
2017-12-23T06:41:22.356Z,8.77
2017-12-23T06:42:24.844Z,8.75
2017-12-23T06:43:27.421Z,8.76
2017-12-23T06:44:29.916Z,8.70
2017-12-23T06:45:32.412Z,8.77
2017-12-23T06:46:34.874Z,8.80
2017-12-23T06:47:37.335Z,8.81
2017-12-23T06:48:39.818Z,8.74
2017-12-23T06:49:42.310Z,8.74
2017-12-23T06:50:44.770Z,8.68
2017-12-23T06:51:47.244Z,8.66
2017-12-23T06:52:49.716Z,8.68
2017-12-23T06:53:52.174Z,8.68
2017-12-23T06:54:54.687Z,8.64
2017-12-23T06:55:57.166Z,8.61
2017-12-23T06:56:59.664Z,8.66
2017-12-23T06:58:02.156Z,8.66
2017-12-23T06:59:04.618Z,8.63
2017-12-23T07:00:07.124Z,8.66
2017-12-23T07:01:09.593Z,8.66
2017-12-23T07:02:12.395Z,8.63
2017-12-23T07:03:14.880Z,8.61
2017-12-23T07:04:17.356Z,8.62
2017-12-23T07:05:19.849Z,8.60
2017-12-23T07:06:22.371Z,8.65
2017-12-23T07:07:24.828Z,8.63
2017-12-23T07:08:27.294Z,8.61
2017-12-23T07:09:29.784Z,8.61
2017-12-23T07:10:32.284Z,8.60
2017-12-23T07:11:34.761Z,8.52
2017-12-23T07:12:37.214Z,8.54
2017-12-23T07:13:39.726Z,8.53
2017-12-23T07:14:42.196Z,8.53
2017-12-23T07:15:44.697Z,8.52
2017-12-23T07:16:47.160Z,8.50
2017-12-23T07:17:49.635Z,8.50
2017-12-23T07:18:52.112Z,8.52
2017-12-23T07:19:54.590Z,8.50
2017-12-23T07:20:57.082Z,8.53
2017-12-23T07:21:59.556Z,8.55
2017-12-23T07:23:02.020Z,8.54
2017-12-23T07:24:04.505Z,8.51
2017-12-23T07:25:06.964Z,8.53
2017-12-23T07:26:09.473Z,8.58
2017-12-23T07:27:11.930Z,8.60
2017-12-23T07:28:14.415Z,8.64
2017-12-23T07:29:16.921Z,8.61
2017-12-23T07:30:19.486Z,8.62
2017-12-23T07:31:21.981Z,8.61
2017-12-23T07:32:24.506Z,8.60
2017-12-23T07:33:26.970Z,8.67
2017-12-23T07:34:29.434Z,8.67
2017-12-23T07:35:31.911Z,8.69
2017-12-23T07:36:34.420Z,8.70
2017-12-23T07:37:36.912Z,8.77
2017-12-23T07:38:39.424Z,8.75
2017-12-23T07:39:41.908Z,8.76
2017-12-23T07:40:44.392Z,8.86
2017-12-23T07:41:46.889Z,8.83
2017-12-23T07:42:49.358Z,8.83
2017-12-23T07:43:51.840Z,8.84
2017-12-23T07:44:54.348Z,8.81
2017-12-23T07:45:56.816Z,8.86
2017-12-23T07:46:59.313Z,8.81
2017-12-23T07:48:01.779Z,8.80
2017-12-23T07:49:04.261Z,8.81
2017-12-23T07:50:06.730Z,8.82
2017-12-23T07:51:09.214Z,8.83
2017-12-23T07:52:11.695Z,8.83
2017-12-23T07:53:14.169Z,8.85
2017-12-23T07:54:16.652Z,8.84
2017-12-23T07:55:19.107Z,8.85
2017-12-23T07:56:21.568Z,8.84
2017-12-23T07:57:24.420Z,8.86
2017-12-23T07:58:26.925Z,8.94
2017-12-23T07:59:29.437Z,8.90
2017-12-23T08:00:31.912Z,8.95
2017-12-23T08:01:34.384Z,8.94
2017-12-23T08:02:36.872Z,8.99
2017-12-23T08:03:39.354Z,9.01
2017-12-23T08:04:41.828Z,8.97
2017-12-23T08:05:44.305Z,8.88
2017-12-23T08:06:46.766Z,8.96
2017-12-23T08:07:49.250Z,9.01
2017-12-23T08:08:51.725Z,9.04
2017-12-23T08:09:54.194Z,9.08
2017-12-23T08:10:56.668Z,9.05
2017-12-23T08:11:59.188Z,9.08
2017-12-23T08:13:01.666Z,9.29
2017-12-23T08:14:04.139Z,9.16
2017-12-23T08:15:06.620Z,9.20
2017-12-23T08:16:09.108Z,9.19
2017-12-23T08:17:11.580Z,9.06
2017-12-23T08:18:14.077Z,9.13
2017-12-23T08:19:16.555Z,9.03
2017-12-23T08:20:19.014Z,9.03
2017-12-23T08:21:21.479Z,9.14
2017-12-23T08:22:23.948Z,9.13
2017-12-23T08:23:26.439Z,9.23
2017-12-23T08:24:28.916Z,9.21
2017-12-23T08:25:31.403Z,9.24
2017-12-23T08:26:33.890Z,9.20
2017-12-23T08:27:36.346Z,9.10
2017-12-23T08:28:38.826Z,9.16
2017-12-23T08:29:41.295Z,9.18
2017-12-23T08:30:43.769Z,9.16
2017-12-23T08:31:46.226Z,9.14
2017-12-23T08:32:48.705Z,9.14
2017-12-23T08:33:51.182Z,9.10
2017-12-23T08:34:54.003Z,9.16
2017-12-23T08:35:56.569Z,9.18
2017-12-23T08:36:59.033Z,9.20
2017-12-23T08:38:01.513Z,9.15
2017-12-23T08:39:04.013Z,9.11
2017-12-23T08:40:06.489Z,9.11
2017-12-23T08:41:08.969Z,9.12
2017-12-23T08:42:11.440Z,9.08
2017-12-23T08:43:13.910Z,9.15
2017-12-23T08:44:16.390Z,9.15
2017-12-23T08:45:18.866Z,9.12
2017-12-23T08:46:21.336Z,9.08
2017-12-23T08:47:23.794Z,9.13
2017-12-23T08:48:26.249Z,9.03
2017-12-23T08:49:28.730Z,9.02
2017-12-23T08:50:31.199Z,9.17
2017-12-23T08:51:33.671Z,9.22
2017-12-23T08:52:36.154Z,9.25
2017-12-23T08:53:38.614Z,9.14
2017-12-23T08:54:41.145Z,9.16
2017-12-23T08:55:43.582Z,9.12
2017-12-23T08:56:46.061Z,9.12
2017-12-23T08:57:48.527Z,9.12
2017-12-23T08:58:50.983Z,9.10
2017-12-23T08:59:53.482Z,9.14
2017-12-23T09:00:55.965Z,9.11
2017-12-23T09:01:58.437Z,9.04
2017-12-23T09:03:00.912Z,9.02
2017-12-23T09:04:03.366Z,9.02
2017-12-23T09:05:05.861Z,9.03
2017-12-23T09:06:08.346Z,9.02
2017-12-23T09:07:10.874Z,9.03
2017-12-23T09:08:13.313Z,9.06
2017-12-23T09:09:15.825Z,8.99
2017-12-23T09:10:18.352Z,9.03
2017-12-23T09:11:20.824Z,9.02
2017-12-23T09:12:23.296Z,9.07
2017-12-23T09:13:25.776Z,9.03
2017-12-23T09:14:28.252Z,9.00
2017-12-23T09:15:30.729Z,8.91
2017-12-23T09:16:33.187Z,8.99
2017-12-23T09:17:35.668Z,9.03
2017-12-23T09:18:38.141Z,8.98
2017-12-23T09:19:40.595Z,9.00
2017-12-23T09:20:43.079Z,9.00
2017-12-23T09:21:45.552Z,8.96
2017-12-23T09:22:48.044Z,9.01
2017-12-23T09:23:50.539Z,8.99
2017-12-23T09:24:52.995Z,9.02
2017-12-23T09:25:55.482Z,9.01
2017-12-23T09:26:57.942Z,9.06
2017-12-23T09:28:00.415Z,9.05
2017-12-23T09:29:02.892Z,9.03
2017-12-23T09:30:05.369Z,9.04
2017-12-23T09:31:07.846Z,9.03
2017-12-23T09:32:10.321Z,9.05
2017-12-23T09:33:12.784Z,9.04
2017-12-23T09:34:15.257Z,9.07
2017-12-23T09:35:17.728Z,8.99
2017-12-23T09:36:20.220Z,9.02
2017-12-23T09:37:22.693Z,9.04
2017-12-23T09:38:25.153Z,9.11
2017-12-23T09:39:27.633Z,9.12
2017-12-23T09:40:30.271Z,9.13
2017-12-23T09:41:32.806Z,9.13
2017-12-23T09:42:35.262Z,9.08
2017-12-23T09:43:37.740Z,9.10
2017-12-23T09:44:40.194Z,9.16
2017-12-23T09:45:42.654Z,9.22
2017-12-23T09:46:45.164Z,9.20
2017-12-23T09:47:47.627Z,9.16
2017-12-23T09:48:50.091Z,9.12
2017-12-23T09:49:52.562Z,9.04
2017-12-23T09:50:55.030Z,9.08
2017-12-23T09:51:57.536Z,9.06
2017-12-23T09:53:00.021Z,9.12
2017-12-23T09:54:02.498Z,9.13
2017-12-23T09:55:04.991Z,9.10
2017-12-23T09:56:07.461Z,8.98
2017-12-23T09:57:09.964Z,9.05
2017-12-23T09:58:12.426Z,9.05
2017-12-23T09:59:14.899Z,9.25
2017-12-23T10:00:17.369Z,9.22
2017-12-23T10:01:19.829Z,9.23
2017-12-23T10:02:22.306Z,9.19
2017-12-23T10:03:24.778Z,9.19
2017-12-23T10:04:27.238Z,9.21
2017-12-23T10:05:29.720Z,9.20
2017-12-23T10:06:32.186Z,9.23
2017-12-23T10:07:34.708Z,9.15
2017-12-23T10:08:37.192Z,9.19
2017-12-23T10:09:39.675Z,9.17
2017-12-23T10:10:42.146Z,9.12
2017-12-23T10:11:44.622Z,9.16
2017-12-23T10:12:47.102Z,9.20
2017-12-23T10:13:49.642Z,9.17
2017-12-23T10:14:52.120Z,9.18
2017-12-23T10:15:54.578Z,9.14
2017-12-23T10:16:57.042Z,9.16
2017-12-23T10:17:59.549Z,9.24
2017-12-23T10:19:02.022Z,9.20
2017-12-23T10:20:04.496Z,9.21
2017-12-23T10:21:06.992Z,9.15
2017-12-23T10:22:09.526Z,9.13
2017-12-23T10:23:12.022Z,9.16
2017-12-23T10:24:14.492Z,9.20
2017-12-23T10:25:16.969Z,9.22
2017-12-23T10:26:19.446Z,9.20
2017-12-23T10:27:21.928Z,9.21
2017-12-23T10:28:24.424Z,9.15
2017-12-23T10:29:26.904Z,9.17
2017-12-23T10:30:29.381Z,9.16
2017-12-23T10:31:31.863Z,9.17
2017-12-23T10:32:34.343Z,9.15
2017-12-23T10:33:36.837Z,9.11
2017-12-23T10:34:39.312Z,9.10
2017-12-23T10:35:41.770Z,9.09
2017-12-23T10:36:44.248Z,9.08
2017-12-23T10:37:46.715Z,9.11
2017-12-23T10:38:49.234Z,9.13
2017-12-23T10:39:51.722Z,9.13
2017-12-23T10:40:54.204Z,9.14
2017-12-23T10:41:56.739Z,9.15
2017-12-23T10:42:59.236Z,9.21
2017-12-23T10:44:01.765Z,9.25
2017-12-23T10:45:04.248Z,9.25
2017-12-23T10:46:06.801Z,9.22
2017-12-23T10:47:09.268Z,9.26
2017-12-23T10:48:12.230Z,9.28
2017-12-23T10:49:14.750Z,9.22
2017-12-23T10:50:17.226Z,9.19
2017-12-23T10:51:19.682Z,9.17
2017-12-23T10:52:22.160Z,9.20
2017-12-23T10:53:24.618Z,9.23
2017-12-23T10:54:27.156Z,9.20
2017-12-23T10:55:29.618Z,9.13
2017-12-23T10:56:32.078Z,9.14
2017-12-23T10:57:34.551Z,9.18
2017-12-23T10:58:37.022Z,9.15
2017-12-23T10:59:39.516Z,9.17
2017-12-23T11:00:41.982Z,9.21
2017-12-23T11:01:44.442Z,9.20
2017-12-23T11:02:46.921Z,9.19
2017-12-23T11:03:49.383Z,9.15
2017-12-23T11:04:51.876Z,9.14
2017-12-23T11:05:54.334Z,9.17
2017-12-23T11:06:56.809Z,9.13
2017-12-23T11:07:59.276Z,9.18
2017-12-23T11:09:01.750Z,9.20
2017-12-23T11:10:04.236Z,9.24
2017-12-23T11:11:06.694Z,9.23
2017-12-23T11:12:09.184Z,9.26
2017-12-23T11:13:11.638Z,9.23
2017-12-23T11:14:14.104Z,9.24
2017-12-23T11:15:16.607Z,9.21
2017-12-23T11:16:19.064Z,9.22
2017-12-23T11:17:21.521Z,9.24
2017-12-23T11:18:23.974Z,9.25
2017-12-23T11:19:26.427Z,9.26
2017-12-23T11:20:28.910Z,9.31
2017-12-23T11:21:31.394Z,9.28
2017-12-23T11:22:33.859Z,9.32
2017-12-23T11:23:36.334Z,9.31
2017-12-23T11:24:38.958Z,9.30
2017-12-23T11:25:41.434Z,9.29
2017-12-23T11:26:43.905Z,9.34
2017-12-23T11:27:46.372Z,9.37
2017-12-23T11:28:48.824Z,9.41
2017-12-23T11:29:51.301Z,9.43
2017-12-23T11:30:53.805Z,9.41
2017-12-23T11:31:56.275Z,9.39
2017-12-23T11:32:58.740Z,9.37
2017-12-23T11:34:01.206Z,9.33
2017-12-23T11:35:03.668Z,9.38
2017-12-23T11:36:06.142Z,9.40
2017-12-23T11:37:08.608Z,9.43
2017-12-23T11:38:11.062Z,9.37
2017-12-23T11:39:13.515Z,9.38
2017-12-23T11:40:15.971Z,9.42
2017-12-23T11:41:18.461Z,9.40
2017-12-23T11:42:20.928Z,9.34
2017-12-23T11:43:23.380Z,9.31
2017-12-23T11:44:25.849Z,9.28
2017-12-23T11:45:28.303Z,9.23
2017-12-23T11:46:30.795Z,9.27
2017-12-23T11:47:33.255Z,9.32
2017-12-23T11:48:35.774Z,9.38
2017-12-23T11:49:38.231Z,9.40
2017-12-23T11:50:40.715Z,9.39
2017-12-23T11:51:43.186Z,9.36
2017-12-23T11:52:45.652Z,9.34
2017-12-23T11:53:48.121Z,9.37
2017-12-23T11:54:50.570Z,9.34
2017-12-23T11:55:53.032Z,9.33
2017-12-23T11:56:55.525Z,9.25
2017-12-23T11:57:58.001Z,9.22
2017-12-23T11:59:00.489Z,9.21
2017-12-23T12:00:02.943Z,9.15
2017-12-23T12:01:05.412Z,9.09
2017-12-23T12:02:07.890Z,9.05
2017-12-23T12:03:10.364Z,9.07
2017-12-23T12:04:12.814Z,9.08
2017-12-23T12:05:15.276Z,9.10
2017-12-23T12:06:17.741Z,9.14
2017-12-23T12:07:20.229Z,9.06
2017-12-23T12:08:22.693Z,9.04
2017-12-23T12:09:25.157Z,9.02
2017-12-23T12:10:27.606Z,9.05
2017-12-23T12:11:30.059Z,9.13
2017-12-23T12:12:32.535Z,9.17
2017-12-23T12:13:35.001Z,9.19
2017-12-23T12:14:37.451Z,9.18
2017-12-23T12:15:39.930Z,9.12
2017-12-23T12:16:42.386Z,9.13
2017-12-23T12:17:44.874Z,9.17
2017-12-23T12:18:47.324Z,9.18
2017-12-23T12:19:49.787Z,9.20
2017-12-23T12:20:52.261Z,9.20
2017-12-23T12:21:54.731Z,9.23
2017-12-23T12:22:57.217Z,9.19
2017-12-23T12:23:59.675Z,9.18
2017-12-23T12:25:02.144Z,9.25
2017-12-23T12:26:04.625Z,9.22
2017-12-23T12:27:07.082Z,9.14
2017-12-23T12:28:09.568Z,9.18
2017-12-23T12:29:12.041Z,9.21
2017-12-23T12:30:14.505Z,9.27
2017-12-23T12:31:16.967Z,9.15
2017-12-23T12:32:19.442Z,9.16
2017-12-23T12:33:21.909Z,9.16
2017-12-23T12:34:24.385Z,9.14
2017-12-23T12:35:26.860Z,9.22
2017-12-23T12:36:29.348Z,9.15
2017-12-23T12:37:31.817Z,9.17
2017-12-23T12:38:34.314Z,9.20
2017-12-23T12:39:36.792Z,9.21
2017-12-23T12:40:39.256Z,9.18
2017-12-23T12:41:41.829Z,9.17
2017-12-23T12:42:44.390Z,9.17
2017-12-23T12:43:46.941Z,8.98
2017-12-23T12:44:49.418Z,9.07
2017-12-23T12:45:51.883Z,9.07
2017-12-23T12:46:54.357Z,9.11
2017-12-23T12:47:56.803Z,9.07
2017-12-23T12:48:59.284Z,9.11
2017-12-23T12:50:01.732Z,9.16
2017-12-23T12:51:04.209Z,9.13
2017-12-23T12:52:06.662Z,9.06
2017-12-23T12:53:09.130Z,9.05
2017-12-23T12:54:11.617Z,9.04
2017-12-23T12:55:14.082Z,9.10
2017-12-23T12:56:16.653Z,9.08
2017-12-23T12:57:19.106Z,9.13
2017-12-23T12:58:21.585Z,9.23
2017-12-23T12:59:24.058Z,9.25
2017-12-23T13:00:26.544Z,9.13
2017-12-23T13:01:28.994Z,9.23
2017-12-23T13:02:31.446Z,9.24
2017-12-23T13:03:33.899Z,9.21
2017-12-23T13:04:36.370Z,9.17
2017-12-23T13:05:38.849Z,9.18
2017-12-23T13:06:41.310Z,9.13
2017-12-23T13:07:43.824Z,9.05
2017-12-23T13:08:46.292Z,9.12
2017-12-23T13:09:48.762Z,9.08
2017-12-23T13:10:51.233Z,9.08
2017-12-23T13:11:53.696Z,9.13
2017-12-23T13:12:56.160Z,9.16
2017-12-23T13:13:58.628Z,9.18
2017-12-23T13:15:01.102Z,9.14
2017-12-23T13:16:03.569Z,9.17
2017-12-23T13:17:06.044Z,9.25
2017-12-23T13:18:08.571Z,9.26
2017-12-23T13:19:11.110Z,9.30
2017-12-23T13:20:13.578Z,9.32
2017-12-23T13:21:16.042Z,9.35
2017-12-23T13:22:18.490Z,9.32
2017-12-23T13:23:20.961Z,9.34
2017-12-23T13:24:23.428Z,9.30
2017-12-23T13:25:25.906Z,9.31
2017-12-23T13:26:28.373Z,9.24
2017-12-23T13:27:30.840Z,9.17
2017-12-23T13:28:33.308Z,9.17
2017-12-23T13:29:35.813Z,9.21
2017-12-23T13:30:38.296Z,9.22
2017-12-23T13:31:40.767Z,9.24
2017-12-23T13:32:43.220Z,9.24
2017-12-23T13:33:45.868Z,9.16
2017-12-23T13:34:48.328Z,9.17
2017-12-23T13:35:50.805Z,9.13
2017-12-23T13:36:53.254Z,9.18
2017-12-23T13:37:55.967Z,9.19
2017-12-23T13:38:58.428Z,9.16
2017-12-23T13:40:00.893Z,9.22
2017-12-23T13:41:03.373Z,9.21
2017-12-23T13:42:05.842Z,9.21
2017-12-23T13:43:08.294Z,9.25
2017-12-23T13:44:10.757Z,9.02
2017-12-23T13:45:13.220Z,9.10
2017-12-23T13:46:15.690Z,9.12
2017-12-23T13:47:18.206Z,9.19
2017-12-23T13:48:20.667Z,9.07
2017-12-23T13:49:23.148Z,9.05
2017-12-23T13:50:25.613Z,9.13
2017-12-23T13:51:28.123Z,9.17